createdAt,value
2024-01-08T00:02:44.218Z,82.19
2024-01-08T00:07:47.178Z,82.09
2024-01-08T00:12:49.927Z,81.94
2024-01-08T00:17:53.082Z,81.75
2024-01-08T00:22:56.352Z,81.79
2024-01-08T00:27:59.252Z,81.95
2024-01-08T00:33:02.078Z,81.88
2024-01-08T00:38:05.053Z,81.99
2024-01-08T00:43:07.682Z,81.86
2024-01-08T00:48:10.773Z,81.89
2024-01-08T00:53:13.513Z,82.06
2024-01-08T00:58:17.111Z,82.07
2024-01-08T01:03:20.758Z,82.11
2024-01-08T01:08:23.679Z,82.07
2024-01-08T01:13:27.093Z,81.83
2024-01-08T01:18:30.048Z,81.58
2024-01-08T01:23:33.631Z,81.74
2024-01-08T01:28:36.424Z,81.56
2024-01-08T01:33:39.584Z,81.40
2024-01-08T01:38:42.464Z,81.31
2024-01-08T01:43:45.113Z,81.24
2024-01-08T01:48:48.057Z,81.40
2024-01-08T01:53:51.047Z,80.63
2024-01-08T01:58:54.036Z,80.71
2024-01-08T02:03:57.193Z,80.65
2024-01-08T02:08:59.987Z,80.76
2024-01-08T02:14:02.750Z,80.88
2024-01-08T02:19:06.272Z,80.48
2024-01-08T02:24:08.971Z,80.43
2024-01-08T02:29:11.742Z,80.83
2024-01-08T02:34:14.501Z,80.76
2024-01-08T02:39:17.216Z,80.74
2024-01-08T02:44:20.054Z,80.79
2024-01-08T02:49:22.966Z,80.45
2024-01-08T02:54:26.415Z,80.03
2024-01-08T02:59:29.220Z,79.83
2024-01-08T03:04:31.889Z,79.96
2024-01-08T03:09:34.625Z,79.90
2024-01-08T03:14:37.298Z,79.73
2024-01-08T03:19:40.070Z,79.69
2024-01-08T03:24:42.769Z,79.71
2024-01-08T03:29:45.446Z,80.19
2024-01-08T03:34:48.124Z,79.99
2024-01-08T03:39:50.835Z,79.76
2024-01-08T03:44:53.620Z,79.78
2024-01-08T03:49:57.168Z,79.53
2024-01-08T03:54:59.903Z,79.46
2024-01-08T04:00:02.618Z,79.36
2024-01-08T04:05:06.536Z,79.22
2024-01-08T04:10:09.577Z,79.38
2024-01-08T04:15:12.365Z,79.49
2024-01-08T04:20:15.175Z,79.50
2024-01-08T04:25:18.253Z,79.70
2024-01-08T04:30:21.087Z,79.41
2024-01-08T04:35:23.915Z,79.60
2024-01-08T04:40:26.554Z,79.54
2024-01-08T04:45:30.649Z,79.77
2024-01-08T04:50:33.350Z,79.82
2024-01-08T04:55:37.453Z,79.65
2024-01-08T05:00:40.329Z,79.79
2024-01-08T05:05:43.790Z,79.56
2024-01-08T05:10:46.647Z,79.49
2024-01-08T05:15:49.305Z,79.63
2024-01-08T05:20:51.954Z,79.55
2024-01-08T05:25:54.774Z,79.40
2024-01-08T05:30:57.876Z,79.45
2024-01-08T05:36:01.708Z,79.36
2024-01-08T05:41:04.588Z,79.53
2024-01-08T05:46:08.571Z,79.60
2024-01-08T05:51:11.652Z,79.47
2024-01-08T05:56:14.401Z,79.54
2024-01-08T06:01:18.660Z,79.51
2024-01-08T06:06:22.034Z,79.76
2024-01-08T06:11:25.436Z,79.55
2024-01-08T06:16:32.261Z,79.93
2024-01-08T06:21:34.947Z,80.14
2024-01-08T06:26:37.761Z,79.93
2024-01-08T06:31:40.807Z,79.95
2024-01-08T06:36:43.538Z,79.91
2024-01-08T06:41:46.354Z,79.78
2024-01-08T06:46:49.017Z,80.03
2024-01-08T06:51:51.616Z,80.08
2024-01-08T06:56:54.293Z,79.98
2024-01-08T07:01:57.065Z,79.86
2024-01-08T07:07:00.616Z,79.94
2024-01-08T07:12:05.097Z,79.65
2024-01-08T07:17:07.850Z,79.56
2024-01-08T07:22:10.612Z,79.29
2024-01-08T07:27:13.502Z,79.45
2024-01-08T07:32:16.466Z,79.60
2024-01-08T07:37:19.202Z,79.67
2024-01-08T07:42:22.182Z,79.00
2024-01-08T07:47:25.209Z,79.17
2024-01-08T07:52:37.942Z,79.33
2024-01-08T07:57:41.784Z,79.25
2024-01-08T08:02:45.051Z,79.09
2024-01-08T08:07:48.256Z,78.62
2024-01-08T08:12:52.988Z,78.37
2024-01-08T08:25:02.498Z,78.49
2024-01-08T08:30:07.953Z,78.32
2024-01-08T08:35:11.577Z,78.50
2024-01-08T08:40:14.889Z,78.61
2024-01-08T08:45:19.223Z,77.86
2024-01-08T08:50:22.300Z,77.60
2024-01-08T08:55:24.953Z,76.71
2024-01-08T09:00:27.700Z,77.77
2024-01-08T09:05:36.875Z,78.06
2024-01-08T09:10:43.167Z,77.69
2024-01-08T09:15:46.036Z,77.24
2024-01-08T09:20:48.813Z,76.88
2024-01-08T09:25:51.658Z,76.68
2024-01-08T09:30:55.610Z,75.29
2024-01-08T09:35:59.008Z,75.66
2024-01-08T09:41:07.910Z,76.13
2024-01-08T09:46:20.022Z,75.33
2024-01-08T09:51:23.695Z,75.70
2024-01-08T09:56:27.905Z,75.81
2024-01-08T10:01:30.966Z,75.88
2024-01-08T10:06:34.097Z,75.87
2024-01-08T10:11:37.488Z,75.54
2024-01-08T10:16:54.820Z,74.61
2024-01-08T10:22:15.364Z,74.98
2024-01-08T10:27:18.615Z,74.50
2024-01-08T10:32:24.401Z,75.17
2024-01-08T10:37:28.377Z,75.34
2024-01-08T10:42:31.474Z,74.55
2024-01-08T10:47:45.580Z,73.65
2024-01-08T10:52:57.831Z,73.09
2024-01-08T10:58:05.891Z,73.29
2024-01-08T11:03:08.932Z,73.64
2024-01-08T11:08:13.837Z,73.29
2024-01-08T11:13:17.791Z,72.64
2024-01-08T11:18:31.952Z,71.76
2024-01-08T11:23:41.044Z,71.82
2024-01-08T11:29:04.620Z,72.20
2024-01-08T11:34:32.171Z,72.46
2024-01-08T11:39:41.085Z,72.07
2024-01-08T11:44:44.453Z,72.45
2024-01-08T11:50:07.930Z,72.19
2024-01-08T11:55:11.405Z,70.92
2024-01-08T12:00:16.296Z,70.25
2024-01-08T12:05:19.615Z,70.74
2024-01-08T12:10:22.792Z,70.25
2024-01-08T12:15:28.920Z,71.96
2024-01-08T12:20:31.914Z,72.10
2024-01-08T12:25:35.409Z,72.24
2024-01-08T12:30:40.136Z,72.32
2024-01-08T12:35:43.530Z,71.77
2024-01-08T12:40:46.545Z,72.05
2024-01-08T12:45:51.290Z,72.28
2024-01-08T12:50:54.574Z,72.29
2024-01-08T12:56:00.414Z,71.81
2024-01-08T13:01:03.455Z,72.43
2024-01-08T13:06:08.512Z,72.59
2024-01-08T13:11:13.109Z,72.46
2024-01-08T13:16:16.173Z,72.12
2024-01-08T13:21:19.069Z,72.61
2024-01-08T13:26:22.074Z,72.69
2024-01-08T13:31:25.084Z,72.97
2024-01-08T13:36:27.967Z,73.60
2024-01-08T13:41:32.318Z,73.63
2024-01-08T13:46:35.705Z,74.04
2024-01-08T13:51:38.580Z,74.73
2024-01-08T13:56:42.740Z,74.52
2024-01-08T14:01:45.714Z,74.16
2024-01-08T14:06:48.430Z,74.43
2024-01-08T14:11:51.267Z,74.30
2024-01-08T14:16:54.084Z,74.73
2024-01-08T14:21:57.017Z,75.13
2024-01-08T14:26:59.785Z,75.39
2024-01-08T14:32:02.879Z,75.81
2024-01-08T14:37:05.928Z,75.92
2024-01-08T14:42:09.088Z,76.08
2024-01-08T14:47:11.928Z,76.27
2024-01-08T14:52:15.071Z,76.71
2024-01-08T14:57:17.993Z,77.19
2024-01-08T15:02:21.270Z,77.39
2024-01-08T15:07:24.391Z,77.28
2024-01-08T15:12:27.411Z,77.37
2024-01-08T15:17:30.504Z,77.26
2024-01-08T15:22:33.661Z,77.49
2024-01-08T15:27:37.423Z,77.43
2024-01-08T15:32:42.377Z,77.72
2024-01-08T15:37:45.242Z,77.56
2024-01-08T15:42:47.928Z,77.47
2024-01-08T15:47:51.043Z,77.70
2024-01-08T15:52:53.877Z,77.80
2024-01-08T15:57:56.618Z,78.04
2024-01-08T16:02:59.594Z,78.21
2024-01-08T16:08:04.031Z,78.45
2024-01-08T16:13:06.786Z,78.57
2024-01-08T16:18:09.661Z,78.68
2024-01-08T16:23:12.423Z,79.06
2024-01-08T16:28:15.354Z,78.65
2024-01-08T16:33:18.320Z,78.89
2024-01-08T16:38:21.441Z,79.29
2024-01-08T16:43:25.258Z,79.69
2024-01-08T16:48:29.363Z,79.98
2024-01-08T16:53:33.271Z,79.99
2024-01-08T16:58:37.012Z,79.43
2024-01-08T17:03:42.436Z,79.30
2024-01-08T17:08:45.503Z,80.32
2024-01-08T17:13:48.794Z,80.57
2024-01-08T17:18:51.826Z,80.72
2024-01-08T17:23:54.726Z,80.66
2024-01-08T17:28:58.842Z,81.08
2024-01-08T17:34:01.708Z,81.42
2024-01-08T17:39:04.721Z,81.35
2024-01-08T17:44:08.630Z,80.99
2024-01-08T17:49:12.502Z,79.75
2024-01-08T17:54:15.266Z,80.46
2024-01-08T17:59:18.262Z,80.79
2024-01-08T18:04:21.223Z,81.33
2024-01-08T18:09:24.399Z,81.38
2024-01-08T18:14:29.117Z,81.53
2024-01-08T18:19:32.273Z,81.20
2024-01-08T18:24:37.298Z,80.85
2024-01-08T18:29:40.117Z,80.71
2024-01-08T18:34:42.892Z,80.90
2024-01-08T18:39:45.604Z,80.98
2024-01-08T18:44:48.366Z,81.13
2024-01-08T18:49:51.237Z,80.90
2024-01-08T18:54:54.361Z,80.00
2024-01-08T18:59:57.913Z,80.31
2024-01-08T19:05:01.407Z,80.42
2024-01-08T19:10:19.006Z,79.15
2024-01-08T19:15:21.756Z,79.76
2024-01-08T19:20:27.102Z,80.19
2024-01-08T19:25:42.252Z,80.35
2024-01-08T19:30:46.114Z,80.39
2024-01-08T19:35:49.013Z,80.44
2024-01-08T19:40:51.907Z,80.72
2024-01-08T19:45:54.964Z,80.77
2024-01-08T19:50:57.780Z,81.00
2024-01-08T19:56:00.604Z,80.77
2024-01-08T20:01:04.466Z,80.46
2024-01-08T20:06:09.162Z,80.12
2024-01-08T20:11:15.854Z,80.22
2024-01-08T20:16:19.833Z,80.22
2024-01-08T20:21:24.274Z,80.37
2024-01-08T20:26:27.130Z,80.30
2024-01-08T20:31:29.804Z,80.38
2024-01-08T20:36:46.339Z,80.35
2024-01-08T20:41:50.518Z,80.10
2024-01-08T20:46:54.146Z,79.97
2024-01-08T20:51:56.953Z,80.01
2024-01-08T20:57:02.690Z,80.00
2024-01-08T21:02:07.156Z,80.36
2024-01-08T21:07:09.964Z,80.67
2024-01-08T21:12:12.825Z,80.81
2024-01-08T21:17:15.837Z,81.06
2024-01-08T21:22:18.846Z,80.66
2024-01-08T21:27:21.568Z,80.45
2024-01-08T21:32:24.812Z,80.39
2024-01-08T21:37:32.880Z,80.40
2024-01-08T21:42:36.641Z,80.35
2024-01-08T21:47:39.412Z,80.32
2024-01-08T21:52:42.657Z,80.10
2024-01-08T21:57:45.549Z,79.99
2024-01-08T22:02:48.696Z,80.30
2024-01-08T22:07:51.866Z,80.27
2024-01-08T22:12:56.828Z,80.57
2024-01-08T22:17:59.874Z,80.27
2024-01-08T22:23:03.483Z,80.15
2024-01-08T22:28:09.588Z,79.99
2024-01-08T22:33:12.543Z,79.69
2024-01-08T22:38:15.456Z,79.84
2024-01-08T22:43:18.227Z,80.17
2024-01-08T22:48:20.936Z,80.64
2024-01-08T22:53:23.975Z,80.70
2024-01-08T22:58:26.609Z,80.12
2024-01-08T23:03:29.462Z,79.28
2024-01-08T23:08:32.690Z,79.75
2024-01-08T23:13:35.370Z,80.19
2024-01-08T23:18:38.191Z,80.34
2024-01-08T23:23:41.197Z,80.19
2024-01-08T23:28:44.162Z,80.00
2024-01-08T23:33:47.148Z,80.05
2024-01-08T23:38:50.016Z,80.42
2024-01-08T23:43:52.759Z,80.54
2024-01-08T23:48:55.543Z,80.36
2024-01-08T23:53:58.294Z,80.18
2024-01-08T23:59:01.090Z,80.16
